KLM45L LPPT-EHAM
Flight info
| Callsign | KLM45L |
|---|---|
| Flight time | 2h 23m |
| Altitude | 34000 |
| Route | IXIDA DCT PINOX DCT RIVRO DCT TOSDI DCT ZMR DCT NUBLO DCT RONSI DCT DELOG DCT FUJTI DCT OSGES DCT BEVAV DCT AKIKI UN867 AVANT/N0447F350 DCT BRAIN M197 REDFA |
| Aircraft | A321/M-SDE3FGHIRWY/LB1 |
Departure
| Time | 2026-05-04 18:45 |
|---|---|
| Airport | Lisbon Humberto Delgado Airport (LPPT) |
Arrival
| Time | 2026-05-04 21:08 |
|---|---|
| Airport | Amsterdam Airport Schiphol (EHAM) |
| Time | Latitude | Longitude | Altitude | Speed | Heading |
|---|---|---|---|---|---|
| 2026-05-04 18:20 | 38.77296 | -9.13167 | 334 ft | 0 kts | 78° |
| 2026-05-04 18:34 | 38.77296 | -9.13168 | 337 ft | 2 kts | 78° |
| 2026-05-04 18:34 | 38.77293 | -9.13200 | 336 ft | 4 kts | 91° |
| 2026-05-04 18:34 | 38.77297 | -9.13233 | 334 ft | 4 kts | 117° |
| 2026-05-04 18:35 | 38.77312 | -9.13255 | 333 ft | 2 kts | 166° |
| 2026-05-04 18:35 | 38.77318 | -9.13257 | 334 ft | 0 kts | 168° |
| 2026-05-04 18:38 | 38.77307 | -9.13254 | 338 ft | 5 kts | 168° |
| 2026-05-04 18:38 | 38.77259 | -9.13241 | 338 ft | 8 kts | 168° |
| 2026-05-04 18:39 | 38.77203 | -9.13226 | 334 ft | 9 kts | 168° |
| 2026-05-04 18:39 | 38.77137 | -9.13208 | 338 ft | 12 kts | 168° |
| 2026-05-04 18:39 | 38.77055 | -9.13186 | 336 ft | 12 kts | 168° |
| 2026-05-04 18:39 | 38.76975 | -9.13164 | 338 ft | 12 kts | 168° |
| 2026-05-04 18:40 | 38.76898 | -9.13144 | 339 ft | 11 kts | 168° |
| 2026-05-04 18:40 | 38.76822 | -9.13124 | 337 ft | 11 kts | 175° |
| 2026-05-04 18:40 | 38.76778 | -9.13178 | 340 ft | 11 kts | 259° |
| 2026-05-04 18:40 | 38.76763 | -9.13279 | 341 ft | 12 kts | 258° |
| 2026-05-04 18:41 | 38.76743 | -9.13371 | 353 ft | 9 kts | 241° |
| 2026-05-04 18:41 | 38.76695 | -9.13427 | 347 ft | 12 kts | 214° |
| 2026-05-04 18:41 | 38.76646 | -9.13533 | 349 ft | 17 kts | 259° |
| 2026-05-04 18:41 | 38.76623 | -9.13680 | 351 ft | 17 kts | 258° |
| 2026-05-04 18:42 | 38.76599 | -9.13826 | 353 ft | 17 kts | 258° |
| 2026-05-04 18:42 | 38.76585 | -9.13915 | 354 ft | 7 kts | 258° |
| 2026-05-04 18:42 | 38.76571 | -9.14001 | 355 ft | 13 kts | 258° |
| 2026-05-04 18:42 | 38.76556 | -9.14114 | 347 ft | 14 kts | 274° |
| 2026-05-04 18:43 | 38.76583 | -9.14204 | 336 ft | 3 kts | 292° |
| 2026-05-04 18:43 | 38.76585 | -9.14211 | 336 ft | 0 kts | 292° |
| 2026-05-04 18:43 | 38.76594 | -9.14240 | 336 ft | 10 kts | 293° |
| 2026-05-04 18:43 | 38.76639 | -9.14352 | 332 ft | 16 kts | 314° |
| 2026-05-04 18:44 | 38.76699 | -9.14358 | 333 ft | 5 kts | 20° |
| 2026-05-04 18:44 | 38.76704 | -9.14356 | 334 ft | 0 kts | 21° |
| 2026-05-04 18:44 | 38.76877 | -9.14266 | 350 ft | 61 kts | 22° |
| 2026-05-04 18:44 | 38.77464 | -9.13949 | 364 ft | 119 kts | 22° |
| 2026-05-04 18:45 | 38.78375 | -9.13461 | 374 ft | 163 kts | 19° |
| 2026-05-04 18:45 | 38.79420 | -9.12872 | 955 ft | 161 kts | 20° |
| 2026-05-04 18:45 | 38.80376 | -9.12235 | 1766 ft | 148 kts | 21° |
| 2026-05-04 18:45 | 38.81338 | -9.11699 | 2114 ft | 159 kts | 20° |
| 2026-05-04 18:46 | 38.82383 | -9.10988 | 2267 ft | 180 kts | 23° |
| 2026-05-04 18:46 | 38.83522 | -9.10155 | 2405 ft | 196 kts | 24° |
| 2026-05-04 18:46 | 38.84754 | -9.09234 | 2540 ft | 216 kts | 26° |
| 2026-05-04 18:46 | 38.86124 | -9.08199 | 2693 ft | 241 kts | 26° |
| 2026-05-04 18:47 | 38.87599 | -9.07074 | 3256 ft | 251 kts | 26° |
| 2026-05-04 18:47 | 38.89101 | -9.05916 | 4021 ft | 254 kts | 28° |
| 2026-05-04 18:47 | 38.90511 | -9.04485 | 4723 ft | 262 kts | 39° |
| 2026-05-04 18:47 | 38.91873 | -9.02892 | 5418 ft | 267 kts | 38° |
| 2026-05-04 18:48 | 38.93259 | -9.01269 | 6117 ft | 272 kts | 39° |
| 2026-05-04 18:48 | 38.94669 | -8.99619 | 6806 ft | 277 kts | 39° |
| 2026-05-04 18:48 | 38.96086 | -8.97961 | 7449 ft | 281 kts | 38° |
| 2026-05-04 18:48 | 38.97542 | -8.96259 | 8142 ft | 284 kts | 39° |
| 2026-05-04 18:49 | 38.99015 | -8.94533 | 8825 ft | 288 kts | 39° |
| 2026-05-04 18:49 | 39.00507 | -8.92784 | 9486 ft | 292 kts | 39° |
| 2026-05-04 18:49 | 39.02013 | -8.91022 | 10187 ft | 295 kts | 38° |
| 2026-05-04 18:49 | 39.03578 | -8.89196 | 10418 ft | 314 kts | 38° |
| 2026-05-04 18:50 | 39.05256 | -8.87243 | 10549 ft | 336 kts | 38° |
| 2026-05-04 18:50 | 39.07046 | -8.85156 | 10672 ft | 356 kts | 39° |
| 2026-05-04 18:50 | 39.08915 | -8.82972 | 11017 ft | 367 kts | 39° |
| 2026-05-04 18:50 | 39.10820 | -8.80739 | 11554 ft | 373 kts | 39° |
| 2026-05-04 18:51 | 39.12743 | -8.78476 | 12126 ft | 377 kts | 39° |
| 2026-05-04 18:51 | 39.14031 | -8.76958 | 12520 ft | 380 kts | 39° |
| 2026-05-04 18:51 | 39.15992 | -8.74646 | 13103 ft | 384 kts | 39° |
| 2026-05-04 18:51 | 39.17859 | -8.72144 | 13637 ft | 392 kts | 45° |
| 2026-05-04 18:52 | 39.19669 | -8.69486 | 14184 ft | 396 kts | 45° |
| 2026-05-04 18:52 | 39.21498 | -8.66803 | 14680 ft | 400 kts | 45° |
| 2026-05-04 18:52 | 39.23344 | -8.64097 | 15185 ft | 404 kts | 45° |
| 2026-05-04 18:52 | 39.25209 | -8.61366 | 15684 ft | 408 kts | 45° |
| 2026-05-04 18:53 | 39.27093 | -8.58610 | 16195 ft | 411 kts | 45° |
| 2026-05-04 18:53 | 39.28995 | -8.55825 | 16685 ft | 414 kts | 45° |
| 2026-05-04 18:53 | 39.30905 | -8.53020 | 17162 ft | 418 kts | 45° |
| 2026-05-04 18:53 | 39.32828 | -8.50186 | 17658 ft | 422 kts | 45° |
| 2026-05-04 18:54 | 39.34771 | -8.47319 | 18109 ft | 425 kts | 45° |
| 2026-05-04 18:54 | 39.36724 | -8.44430 | 18547 ft | 429 kts | 45° |
| 2026-05-04 18:54 | 39.38695 | -8.41518 | 18959 ft | 432 kts | 44° |
| 2026-05-04 18:54 | 39.40685 | -8.38577 | 19356 ft | 436 kts | 44° |
| 2026-05-04 18:55 | 39.42686 | -8.35623 | 19741 ft | 439 kts | 44° |
| 2026-05-04 18:55 | 39.46881 | -8.29786 | 20492 ft | 444 kts | 40° |
| 2026-05-04 18:55 | 39.49092 | -8.26981 | 20887 ft | 446 kts | 39° |
| 2026-05-04 18:56 | 39.51344 | -8.24197 | 21286 ft | 449 kts | 38° |
| 2026-05-04 18:56 | 39.53621 | -8.21391 | 21691 ft | 452 kts | 39° |
| 2026-05-04 18:56 | 39.55898 | -8.18556 | 22083 ft | 456 kts | 39° |
| 2026-05-04 18:56 | 39.58177 | -8.15675 | 22467 ft | 459 kts | 39° |
| 2026-05-04 18:57 | 39.60457 | -8.12749 | 22854 ft | 463 kts | 40° |
| 2026-05-04 18:57 | 39.62714 | -8.09830 | 23225 ft | 466 kts | 40° |
| 2026-05-04 18:57 | 39.65013 | -8.06847 | 23602 ft | 469 kts | 40° |
| 2026-05-04 18:57 | 39.67335 | -8.03836 | 23888 ft | 472 kts | 40° |
| 2026-05-04 18:58 | 39.69665 | -8.00813 | 24206 ft | 475 kts | 39° |
| 2026-05-04 18:58 | 39.72009 | -7.97778 | 24512 ft | 478 kts | 39° |
| 2026-05-04 18:58 | 39.74384 | -7.94708 | 24812 ft | 480 kts | 39° |
| 2026-05-04 18:58 | 39.76759 | -7.91633 | 25149 ft | 483 kts | 39° |
| 2026-05-04 18:59 | 39.79143 | -7.88546 | 25425 ft | 485 kts | 39° |
| 2026-05-04 18:59 | 39.81538 | -7.85437 | 25708 ft | 488 kts | 39° |
| 2026-05-04 18:59 | 39.83950 | -7.82307 | 25988 ft | 490 kts | 39° |
| 2026-05-04 18:59 | 39.86371 | -7.79164 | 26255 ft | 493 kts | 39° |
| 2026-05-04 19:00 | 39.88806 | -7.76005 | 26529 ft | 496 kts | 38° |
| 2026-05-04 19:00 | 39.91255 | -7.72825 | 26813 ft | 498 kts | 38° |
| 2026-05-04 19:00 | 39.93707 | -7.69635 | 27088 ft | 500 kts | 39° |
| 2026-05-04 19:00 | 39.96174 | -7.66411 | 27343 ft | 503 kts | 39° |
| 2026-05-04 19:01 | 39.98618 | -7.63214 | 27607 ft | 505 kts | 39° |
| 2026-05-04 19:01 | 40.01108 | -7.59956 | 27917 ft | 508 kts | 39° |
| 2026-05-04 19:01 | 40.03607 | -7.56685 | 28178 ft | 510 kts | 39° |
| 2026-05-04 19:01 | 40.06119 | -7.53392 | 28437 ft | 513 kts | 39° |
| 2026-05-04 19:02 | 40.08635 | -7.50084 | 28781 ft | 513 kts | 39° |
| 2026-05-04 19:02 | 40.11148 | -7.46776 | 29131 ft | 513 kts | 39° |
| 2026-05-04 19:02 | 40.13662 | -7.43468 | 29471 ft | 512 kts | 39° |
| 2026-05-04 19:02 | 40.16174 | -7.40162 | 29791 ft | 513 kts | 39° |
| 2026-05-04 19:03 | 40.18684 | -7.36852 | 30109 ft | 513 kts | 39° |
| 2026-05-04 19:03 | 40.21199 | -7.33533 | 30382 ft | 513 kts | 39° |
| 2026-05-04 19:03 | 40.23706 | -7.30221 | 30662 ft | 513 kts | 39° |
| 2026-05-04 19:03 | 40.26218 | -7.26898 | 30998 ft | 512 kts | 39° |
| 2026-05-04 19:04 | 40.28715 | -7.23590 | 31297 ft | 511 kts | 39° |
| 2026-05-04 19:04 | 40.31218 | -7.20273 | 31605 ft | 511 kts | 39° |
| 2026-05-04 19:04 | 40.33717 | -7.16962 | 31868 ft | 511 kts | 39° |
| 2026-05-04 19:04 | 40.36214 | -7.13647 | 32140 ft | 511 kts | 39° |
| 2026-05-04 19:05 | 40.38709 | -7.10326 | 32422 ft | 511 kts | 39° |
| 2026-05-04 19:05 | 40.41197 | -7.07011 | 32705 ft | 510 kts | 39° |
| 2026-05-04 19:05 | 40.43685 | -7.03693 | 32998 ft | 510 kts | 39° |
| 2026-05-04 19:05 | 40.46173 | -7.00369 | 33298 ft | 510 kts | 40° |
| 2026-05-04 19:06 | 40.48655 | -6.97054 | 33585 ft | 509 kts | 39° |
| 2026-05-04 19:06 | 40.51139 | -6.93731 | 33873 ft | 509 kts | 40° |
| 2026-05-04 19:06 | 40.53613 | -6.90416 | 34135 ft | 508 kts | 40° |
| 2026-05-04 19:06 | 40.56097 | -6.87087 | 34373 ft | 508 kts | 40° |
| 2026-05-04 19:07 | 40.58565 | -6.83779 | 34608 ft | 507 kts | 40° |
| 2026-05-04 19:07 | 40.61036 | -6.80462 | 34838 ft | 506 kts | 40° |
| 2026-05-04 19:07 | 40.63499 | -6.77152 | 35000 ft | 506 kts | 40° |
| 2026-05-04 19:07 | 40.65957 | -6.73846 | 35045 ft | 504 kts | 40° |
| 2026-05-04 19:08 | 40.70853 | -6.67246 | 35040 ft | 503 kts | 40° |
| 2026-05-04 19:08 | 40.75697 | -6.60692 | 35042 ft | 502 kts | 41° |
| 2026-05-04 19:09 | 40.80571 | -6.54086 | 35034 ft | 502 kts | 41° |
| 2026-05-04 19:09 | 40.85446 | -6.47464 | 35040 ft | 502 kts | 41° |
| 2026-05-04 19:10 | 40.90312 | -6.40843 | 35045 ft | 502 kts | 41° |
| 2026-05-04 19:10 | 40.95176 | -6.34211 | 35040 ft | 502 kts | 41° |
| 2026-05-04 19:11 | 41.00060 | -6.27580 | 35066 ft | 501 kts | 40° |
| 2026-05-04 19:11 | 41.05149 | -6.21325 | 35056 ft | 498 kts | 37° |
| 2026-05-04 19:12 | 41.13005 | -6.12280 | 35044 ft | 498 kts | 37° |
| 2026-05-04 19:13 | 41.18175 | -6.06148 | 35023 ft | 499 kts | 38° |
| 2026-05-04 19:13 | 41.23316 | -5.99930 | 35055 ft | 499 kts | 38° |
| 2026-05-04 19:14 | 41.28422 | -5.93752 | 35039 ft | 499 kts | 38° |
| 2026-05-04 19:14 | 41.33564 | -5.87560 | 35024 ft | 499 kts | 38° |
| 2026-05-04 19:15 | 41.38708 | -5.81343 | 35027 ft | 499 kts | 38° |
| 2026-05-04 19:15 | 41.43846 | -5.75123 | 35045 ft | 499 kts | 38° |
| 2026-05-04 19:16 | 41.48980 | -5.68887 | 35029 ft | 499 kts | 38° |
| 2026-05-04 19:16 | 41.54466 | -5.63361 | 35018 ft | 489 kts | 24° |
| 2026-05-04 19:17 | 41.60632 | -5.59686 | 35020 ft | 484 kts | 17° |
| 2026-05-04 19:17 | 41.66854 | -5.56201 | 35047 ft | 485 kts | 18° |
| 2026-05-04 19:18 | 41.73074 | -5.52683 | 35036 ft | 485 kts | 18° |
| 2026-05-04 19:18 | 41.79282 | -5.49158 | 35030 ft | 485 kts | 18° |
| 2026-05-04 19:19 | 41.85497 | -5.45632 | 35030 ft | 485 kts | 18° |
| 2026-05-04 19:19 | 41.91667 | -5.42122 | 35043 ft | 485 kts | 18° |
| 2026-05-04 19:20 | 41.97882 | -5.38578 | 35035 ft | 485 kts | 19° |
| 2026-05-04 19:20 | 42.04096 | -5.35028 | 35032 ft | 485 kts | 19° |
| 2026-05-04 19:21 | 42.10302 | -5.31470 | 35046 ft | 485 kts | 19° |
| 2026-05-04 19:21 | 42.16518 | -5.27908 | 35042 ft | 485 kts | 19° |
| 2026-05-04 19:22 | 42.22737 | -5.24331 | 35036 ft | 485 kts | 19° |
| 2026-05-04 19:22 | 42.28956 | -5.20756 | 35050 ft | 485 kts | 19° |
| 2026-05-04 19:23 | 42.35169 | -5.17171 | 35039 ft | 485 kts | 19° |
| 2026-05-04 19:23 | 42.41379 | -5.13570 | 35037 ft | 485 kts | 19° |
| 2026-05-04 19:24 | 42.46547 | -5.10570 | 35034 ft | 485 kts | 19° |
| 2026-05-04 19:24 | 42.53812 | -5.06365 | 35056 ft | 485 kts | 20° |
| 2026-05-04 19:25 | 42.59971 | -5.02776 | 35056 ft | 485 kts | 20° |
| 2026-05-04 19:25 | 42.66165 | -4.99157 | 35051 ft | 484 kts | 20° |
| 2026-05-04 19:26 | 42.72352 | -4.95541 | 35059 ft | 484 kts | 20° |
| 2026-05-04 19:26 | 42.78535 | -4.91917 | 35049 ft | 484 kts | 20° |
| 2026-05-04 19:27 | 42.84713 | -4.88280 | 35048 ft | 484 kts | 20° |
| 2026-05-04 19:27 | 42.90903 | -4.84632 | 35055 ft | 484 kts | 20° |
| 2026-05-04 19:28 | 42.97087 | -4.80983 | 35072 ft | 483 kts | 20° |
| 2026-05-04 19:28 | 43.03273 | -4.77336 | 35075 ft | 483 kts | 20° |
| 2026-05-04 19:29 | 43.09431 | -4.73697 | 35072 ft | 482 kts | 20° |
| 2026-05-04 19:29 | 43.15548 | -4.70061 | 35094 ft | 482 kts | 21° |
| 2026-05-04 19:30 | 43.21700 | -4.66392 | 35086 ft | 481 kts | 21° |
| 2026-05-04 19:30 | 43.27836 | -4.62719 | 35080 ft | 481 kts | 21° |
| 2026-05-04 19:31 | 43.33984 | -4.59046 | 35086 ft | 480 kts | 21° |
| 2026-05-04 19:31 | 43.40118 | -4.55372 | 35057 ft | 480 kts | 21° |
| 2026-05-04 19:32 | 43.45204 | -4.52311 | 35049 ft | 480 kts | 22° |
| 2026-05-04 19:32 | 43.52321 | -4.48030 | 35041 ft | 480 kts | 21° |
| 2026-05-04 19:33 | 43.58446 | -4.44346 | 35055 ft | 479 kts | 22° |
| 2026-05-04 19:33 | 43.63530 | -4.41272 | 35052 ft | 479 kts | 22° |
| 2026-05-04 19:34 | 43.69634 | -4.37574 | 35043 ft | 479 kts | 22° |
| 2026-05-04 19:34 | 43.75731 | -4.33864 | 35047 ft | 479 kts | 22° |
| 2026-05-04 19:35 | 43.81832 | -4.30146 | 35045 ft | 478 kts | 22° |
| 2026-05-04 19:35 | 43.87925 | -4.26438 | 35039 ft | 478 kts | 22° |
| 2026-05-04 19:36 | 43.94014 | -4.22723 | 35037 ft | 478 kts | 22° |
| 2026-05-04 19:36 | 44.00107 | -4.18996 | 35035 ft | 478 kts | 23° |
| 2026-05-04 19:37 | 44.06207 | -4.15250 | 35035 ft | 479 kts | 23° |
| 2026-05-04 19:37 | 44.12295 | -4.11499 | 35032 ft | 479 kts | 23° |
| 2026-05-04 19:38 | 44.18392 | -4.07742 | 35041 ft | 479 kts | 23° |
| 2026-05-04 19:38 | 44.24497 | -4.03969 | 35032 ft | 479 kts | 23° |
| 2026-05-04 19:39 | 44.30552 | -4.00219 | 35028 ft | 480 kts | 23° |
| 2026-05-04 19:39 | 44.36681 | -3.96512 | 35028 ft | 480 kts | 21° |
| 2026-05-04 19:40 | 44.42932 | -3.93080 | 35023 ft | 479 kts | 20° |
| 2026-05-04 19:40 | 44.49116 | -3.89766 | 35025 ft | 479 kts | 20° |
| 2026-05-04 19:41 | 44.55332 | -3.86356 | 35033 ft | 480 kts | 21° |
| 2026-05-04 19:41 | 44.61533 | -3.82886 | 35029 ft | 479 kts | 21° |
| 2026-05-04 19:42 | 44.67728 | -3.79400 | 35015 ft | 480 kts | 21° |
| 2026-05-04 19:42 | 44.73942 | -3.75919 | 35016 ft | 480 kts | 21° |
| 2026-05-04 19:43 | 44.80148 | -3.72453 | 35010 ft | 480 kts | 21° |
| 2026-05-04 19:43 | 44.86360 | -3.68965 | 35015 ft | 480 kts | 21° |
| 2026-05-04 19:44 | 44.92531 | -3.65484 | 35013 ft | 480 kts | 21° |
| 2026-05-04 19:44 | 44.98737 | -3.61967 | 35031 ft | 480 kts | 21° |
| 2026-05-04 19:45 | 45.04940 | -3.58459 | 35031 ft | 480 kts | 21° |
| 2026-05-04 19:45 | 45.11144 | -3.54954 | 35028 ft | 480 kts | 21° |
| 2026-05-04 19:46 | 45.17341 | -3.51426 | 35026 ft | 479 kts | 22° |
| 2026-05-04 19:46 | 45.23530 | -3.47893 | 35027 ft | 479 kts | 22° |
| 2026-05-04 19:47 | 45.29716 | -3.44360 | 35005 ft | 479 kts | 22° |
| 2026-05-04 19:47 | 45.35896 | -3.40814 | 35017 ft | 479 kts | 22° |
| 2026-05-04 19:48 | 45.42047 | -3.37283 | 35015 ft | 479 kts | 22° |
| 2026-05-04 19:48 | 45.48225 | -3.33723 | 35016 ft | 479 kts | 22° |
| 2026-05-04 19:49 | 45.54412 | -3.30153 | 35007 ft | 479 kts | 22° |
| 2026-05-04 19:49 | 45.60586 | -3.26579 | 35016 ft | 478 kts | 22° |
| 2026-05-04 19:50 | 45.66734 | -3.23032 | 35018 ft | 478 kts | 22° |
| 2026-05-04 19:50 | 45.72904 | -3.19456 | 35012 ft | 478 kts | 22° |
| 2026-05-04 19:51 | 45.79067 | -3.15857 | 35019 ft | 477 kts | 22° |
| 2026-05-04 19:51 | 45.85217 | -3.12272 | 35000 ft | 477 kts | 23° |
| 2026-05-04 19:52 | 45.91366 | -3.08679 | 35003 ft | 477 kts | 23° |
| 2026-05-04 19:52 | 45.97508 | -3.05070 | 35007 ft | 477 kts | 23° |
| 2026-05-04 19:53 | 46.03649 | -3.01451 | 35009 ft | 476 kts | 23° |
| 2026-05-04 19:53 | 46.09752 | -2.97850 | 35006 ft | 476 kts | 23° |
| 2026-05-04 19:54 | 46.15884 | -2.94234 | 35007 ft | 476 kts | 23° |
| 2026-05-04 19:54 | 46.22027 | -2.90598 | 35010 ft | 476 kts | 23° |
| 2026-05-04 19:55 | 46.28285 | -2.87464 | 35008 ft | 477 kts | 12° |
| 2026-05-04 19:55 | 46.34850 | -2.85834 | 34973 ft | 481 kts | 9° |
| 2026-05-04 19:56 | 46.41470 | -2.84214 | 34974 ft | 484 kts | 10° |
| 2026-05-04 19:56 | 46.48123 | -2.82565 | 34970 ft | 485 kts | 10° |
| 2026-05-04 19:57 | 46.54796 | -2.80896 | 34970 ft | 486 kts | 10° |
| 2026-05-04 19:57 | 46.61470 | -2.79224 | 34981 ft | 487 kts | 10° |
| 2026-05-04 19:58 | 46.68154 | -2.77564 | 34984 ft | 487 kts | 10° |
| 2026-05-04 19:58 | 46.74799 | -2.75909 | 35035 ft | 487 kts | 10° |
| 2026-05-04 19:58 | 46.78135 | -2.75076 | 35275 ft | 486 kts | 10° |
| 2026-05-04 19:59 | 46.81462 | -2.74239 | 35511 ft | 485 kts | 10° |
| 2026-05-04 19:59 | 46.84790 | -2.73401 | 35752 ft | 484 kts | 10° |
| 2026-05-04 19:59 | 46.88102 | -2.72565 | 35939 ft | 484 kts | 10° |
| 2026-05-04 20:00 | 46.94776 | -2.70883 | 35997 ft | 486 kts | 10° |
| 2026-05-04 20:00 | 47.01434 | -2.69197 | 35999 ft | 484 kts | 10° |
| 2026-05-04 20:01 | 47.08074 | -2.67510 | 35998 ft | 484 kts | 10° |
| 2026-05-04 20:01 | 47.14722 | -2.65828 | 35997 ft | 484 kts | 10° |
| 2026-05-04 20:02 | 47.21355 | -2.64140 | 35994 ft | 484 kts | 10° |
| 2026-05-04 20:02 | 47.27953 | -2.62457 | 35997 ft | 484 kts | 10° |
| 2026-05-04 20:03 | 47.34409 | -2.59730 | 35997 ft | 483 kts | 20° |
| 2026-05-04 20:03 | 47.40761 | -2.56478 | 36000 ft | 483 kts | 20° |
| 2026-05-04 20:04 | 47.47120 | -2.53232 | 35995 ft | 483 kts | 20° |
| 2026-05-04 20:04 | 47.53476 | -2.49993 | 35974 ft | 483 kts | 20° |
| 2026-05-04 20:05 | 47.59839 | -2.46744 | 35975 ft | 483 kts | 20° |
| 2026-05-04 20:05 | 47.66193 | -2.43479 | 35979 ft | 484 kts | 20° |
| 2026-05-04 20:06 | 47.72563 | -2.40203 | 35983 ft | 484 kts | 20° |
| 2026-05-04 20:06 | 47.78924 | -2.36915 | 35988 ft | 484 kts | 20° |
| 2026-05-04 20:07 | 47.85241 | -2.33640 | 36000 ft | 484 kts | 20° |
| 2026-05-04 20:07 | 47.91639 | -2.30319 | 36000 ft | 484 kts | 20° |
| 2026-05-04 20:08 | 47.97948 | -2.27030 | 36006 ft | 483 kts | 20° |
| 2026-05-04 20:08 | 48.04341 | -2.23699 | 36007 ft | 483 kts | 20° |
| 2026-05-04 20:09 | 48.10687 | -2.20385 | 36001 ft | 483 kts | 20° |
| 2026-05-04 20:09 | 48.17032 | -2.17060 | 36000 ft | 483 kts | 20° |
| 2026-05-04 20:10 | 48.23327 | -2.13742 | 35985 ft | 482 kts | 20° |
| 2026-05-04 20:10 | 48.29665 | -2.10405 | 35986 ft | 483 kts | 20° |
| 2026-05-04 20:11 | 48.36010 | -2.07046 | 35986 ft | 483 kts | 20° |
| 2026-05-04 20:11 | 48.42352 | -2.03674 | 35987 ft | 483 kts | 20° |
| 2026-05-04 20:12 | 48.48704 | -2.00295 | 35996 ft | 483 kts | 20° |
| 2026-05-04 20:12 | 48.55043 | -1.96925 | 36012 ft | 483 kts | 20° |
| 2026-05-04 20:13 | 48.61402 | -1.93536 | 36016 ft | 483 kts | 20° |
| 2026-05-04 20:13 | 48.67735 | -1.90142 | 36013 ft | 483 kts | 20° |
| 2026-05-04 20:14 | 48.74073 | -1.86736 | 36010 ft | 483 kts | 20° |
| 2026-05-04 20:14 | 48.79340 | -1.83903 | 36012 ft | 483 kts | 20° |
| 2026-05-04 20:15 | 48.85676 | -1.80482 | 36017 ft | 483 kts | 21° |
| 2026-05-04 20:15 | 48.92006 | -1.77052 | 36017 ft | 483 kts | 21° |
| 2026-05-04 20:16 | 48.98333 | -1.73613 | 35987 ft | 484 kts | 20° |
| 2026-05-04 20:16 | 49.04680 | -1.70164 | 35987 ft | 485 kts | 20° |
| 2026-05-04 20:17 | 49.11054 | -1.66747 | 35998 ft | 486 kts | 20° |
| 2026-05-04 20:17 | 49.17457 | -1.63455 | 36008 ft | 486 kts | 19° |
| 2026-05-04 20:18 | 49.23877 | -1.60168 | 36012 ft | 486 kts | 19° |
| 2026-05-04 20:18 | 49.30274 | -1.56849 | 36017 ft | 486 kts | 20° |
| 2026-05-04 20:19 | 49.36665 | -1.53492 | 36023 ft | 485 kts | 20° |
| 2026-05-04 20:19 | 49.43056 | -1.50139 | 36031 ft | 485 kts | 20° |
| 2026-05-04 20:20 | 49.49443 | -1.46783 | 36037 ft | 485 kts | 20° |
| 2026-05-04 20:20 | 49.55825 | -1.43418 | 36043 ft | 485 kts | 20° |
| 2026-05-04 20:21 | 49.62426 | -1.41355 | 36043 ft | 485 kts | 3° |
| 2026-05-04 20:21 | 49.72489 | -1.40508 | 36042 ft | 485 kts | 3° |
| 2026-05-04 20:22 | 49.79223 | -1.39907 | 36044 ft | 485 kts | 3° |
| 2026-05-04 20:22 | 49.85962 | -1.39298 | 36043 ft | 484 kts | 3° |
| 2026-05-04 20:23 | 49.92686 | -1.38699 | 36037 ft | 484 kts | 3° |
| 2026-05-04 20:23 | 49.99401 | -1.38093 | 36037 ft | 483 kts | 5° |
| 2026-05-04 20:24 | 50.06035 | -1.36544 | 36022 ft | 482 kts | 9° |
| 2026-05-04 20:24 | 50.12670 | -1.34874 | 36016 ft | 483 kts | 9° |
| 2026-05-04 20:25 | 50.19306 | -1.33234 | 36020 ft | 483 kts | 9° |
| 2026-05-04 20:25 | 50.25946 | -1.31584 | 36023 ft | 483 kts | 9° |
| 2026-05-04 20:26 | 50.32577 | -1.29918 | 36025 ft | 482 kts | 9° |
| 2026-05-04 20:26 | 50.39201 | -1.28257 | 36028 ft | 482 kts | 9° |
| 2026-05-04 20:27 | 50.45829 | -1.26596 | 36035 ft | 482 kts | 9° |
| 2026-05-04 20:27 | 50.52180 | -1.23415 | 36035 ft | 479 kts | 28° |
| 2026-05-04 20:28 | 50.57859 | -1.17961 | 36037 ft | 478 kts | 33° |
| 2026-05-04 20:28 | 50.63453 | -1.12390 | 36035 ft | 478 kts | 33° |
| 2026-05-04 20:29 | 50.69069 | -1.06791 | 36046 ft | 477 kts | 33° |
| 2026-05-04 20:29 | 50.74683 | -1.01187 | 36040 ft | 476 kts | 33° |
| 2026-05-04 20:30 | 50.80295 | -0.95551 | 36039 ft | 476 kts | 34° |
| 2026-05-04 20:30 | 50.85264 | -0.88788 | 36018 ft | 474 kts | 46° |
| 2026-05-04 20:31 | 50.89966 | -0.81440 | 36027 ft | 475 kts | 45° |
| 2026-05-04 20:31 | 50.94701 | -0.74040 | 36038 ft | 474 kts | 45° |
| 2026-05-04 20:32 | 50.99324 | -0.66794 | 36016 ft | 465 kts | 45° |
| 2026-05-04 20:32 | 51.03909 | -0.59593 | 36024 ft | 463 kts | 45° |
| 2026-05-04 20:33 | 51.08484 | -0.52378 | 36028 ft | 462 kts | 45° |
| 2026-05-04 20:33 | 51.13051 | -0.45156 | 36029 ft | 462 kts | 46° |
| 2026-05-04 20:34 | 51.17601 | -0.37921 | 36031 ft | 462 kts | 46° |
| 2026-05-04 20:34 | 51.22156 | -0.30661 | 36034 ft | 463 kts | 46° |
| 2026-05-04 20:35 | 51.26708 | -0.23399 | 36037 ft | 463 kts | 46° |
| 2026-05-04 20:35 | 51.31255 | -0.16125 | 36036 ft | 462 kts | 46° |
| 2026-05-04 20:36 | 51.35807 | -0.08823 | 36058 ft | 462 kts | 46° |
| 2026-05-04 20:36 | 51.40329 | -0.01537 | 36062 ft | 462 kts | 46° |
| 2026-05-04 20:37 | 51.44849 | 0.05780 | 36057 ft | 462 kts | 46° |
| 2026-05-04 20:37 | 51.49373 | 0.13102 | 36057 ft | 462 kts | 46° |
| 2026-05-04 20:38 | 51.53888 | 0.20441 | 36055 ft | 462 kts | 46° |
| 2026-05-04 20:38 | 51.58408 | 0.27809 | 36052 ft | 462 kts | 46° |
| 2026-05-04 20:39 | 51.62891 | 0.35127 | 36062 ft | 462 kts | 46° |
| 2026-05-04 20:39 | 51.67399 | 0.42519 | 36066 ft | 462 kts | 46° |
| 2026-05-04 20:40 | 51.71900 | 0.49930 | 36055 ft | 462 kts | 46° |
| 2026-05-04 20:40 | 51.76400 | 0.57360 | 36043 ft | 463 kts | 46° |
| 2026-05-04 20:41 | 51.80368 | 0.65485 | 36052 ft | 462 kts | 62° |
| 2026-05-04 20:41 | 51.82652 | 0.75129 | 36046 ft | 460 kts | 77° |
| 2026-05-04 20:42 | 51.84212 | 0.85171 | 36053 ft | 461 kts | 76° |
| 2026-05-04 20:42 | 51.86012 | 0.95144 | 36067 ft | 461 kts | 74° |
| 2026-05-04 20:43 | 51.87912 | 1.05069 | 36044 ft | 462 kts | 74° |
| 2026-05-04 20:43 | 51.89748 | 1.15035 | 36044 ft | 462 kts | 75° |
| 2026-05-04 20:44 | 51.91524 | 1.24986 | 35931 ft | 464 kts | 75° |
| 2026-05-04 20:44 | 51.92412 | 1.30006 | 35433 ft | 464 kts | 75° |
| 2026-05-04 20:44 | 51.93301 | 1.35030 | 34942 ft | 463 kts | 75° |
| 2026-05-04 20:45 | 51.94186 | 1.40039 | 34466 ft | 463 kts | 75° |
| 2026-05-04 20:45 | 51.95074 | 1.45056 | 33986 ft | 463 kts | 75° |
| 2026-05-04 20:45 | 51.95963 | 1.50075 | 33425 ft | 463 kts | 75° |
| 2026-05-04 20:45 | 51.96851 | 1.55101 | 32875 ft | 464 kts | 75° |
| 2026-05-04 20:46 | 51.97735 | 1.60128 | 32327 ft | 465 kts | 75° |
| 2026-05-04 20:46 | 51.98619 | 1.65184 | 31806 ft | 466 kts | 75° |
| 2026-05-04 20:46 | 51.99498 | 1.70260 | 31296 ft | 468 kts | 76° |
| 2026-05-04 20:46 | 52.00336 | 1.75363 | 30790 ft | 469 kts | 77° |
| 2026-05-04 20:47 | 52.01139 | 1.80515 | 30287 ft | 470 kts | 77° |
| 2026-05-04 20:47 | 52.01916 | 1.85681 | 29740 ft | 472 kts | 78° |
| 2026-05-04 20:47 | 52.02689 | 1.90863 | 29171 ft | 473 kts | 77° |
| 2026-05-04 20:47 | 52.03466 | 1.96046 | 28604 ft | 475 kts | 77° |
| 2026-05-04 20:48 | 52.04257 | 2.01254 | 28053 ft | 473 kts | 77° |
| 2026-05-04 20:48 | 52.05051 | 2.06425 | 27515 ft | 470 kts | 77° |
| 2026-05-04 20:48 | 52.05833 | 2.11497 | 27035 ft | 467 kts | 77° |
| 2026-05-04 20:48 | 52.06617 | 2.16597 | 26568 ft | 463 kts | 77° |
| 2026-05-04 20:49 | 52.07390 | 2.21664 | 26114 ft | 460 kts | 77° |
| 2026-05-04 20:49 | 52.08153 | 2.26707 | 25658 ft | 457 kts | 77° |
| 2026-05-04 20:49 | 52.08906 | 2.31721 | 25218 ft | 454 kts | 77° |
| 2026-05-04 20:49 | 52.09651 | 2.36689 | 24774 ft | 451 kts | 77° |
| 2026-05-04 20:50 | 52.10388 | 2.41634 | 24341 ft | 449 kts | 77° |
| 2026-05-04 20:50 | 52.11172 | 2.46530 | 23909 ft | 446 kts | 72° |
| 2026-05-04 20:50 | 52.12355 | 2.51174 | 23466 ft | 443 kts | 62° |
| 2026-05-04 20:50 | 52.13899 | 2.55500 | 22971 ft | 440 kts | 58° |
| 2026-05-04 20:51 | 52.15467 | 2.59792 | 22479 ft | 437 kts | 59° |
| 2026-05-04 20:51 | 52.17004 | 2.64035 | 22003 ft | 434 kts | 59° |
| 2026-05-04 20:51 | 52.18531 | 2.68269 | 21531 ft | 431 kts | 59° |
| 2026-05-04 20:51 | 52.20039 | 2.72467 | 21066 ft | 428 kts | 59° |
| 2026-05-04 20:52 | 52.21539 | 2.76637 | 20600 ft | 425 kts | 59° |
| 2026-05-04 20:52 | 52.23028 | 2.80784 | 20198 ft | 422 kts | 59° |
| 2026-05-04 20:52 | 52.24509 | 2.84916 | 19804 ft | 420 kts | 59° |
| 2026-05-04 20:52 | 52.25980 | 2.89022 | 19419 ft | 418 kts | 59° |
| 2026-05-04 20:53 | 52.27443 | 2.93115 | 19034 ft | 416 kts | 59° |
| 2026-05-04 20:53 | 52.28848 | 2.97235 | 18640 ft | 414 kts | 65° |
| 2026-05-04 20:53 | 52.29654 | 3.01724 | 18253 ft | 411 kts | 83° |
| 2026-05-04 20:53 | 52.29686 | 3.06351 | 17813 ft | 407 kts | 95° |
| 2026-05-04 20:54 | 52.29503 | 3.10902 | 17362 ft | 406 kts | 95° |
| 2026-05-04 20:54 | 52.29312 | 3.15495 | 16914 ft | 403 kts | 94° |
| 2026-05-04 20:54 | 52.29122 | 3.20033 | 16464 ft | 399 kts | 94° |
| 2026-05-04 20:54 | 52.28934 | 3.24548 | 16028 ft | 397 kts | 94° |
| 2026-05-04 20:55 | 52.28749 | 3.29035 | 15605 ft | 394 kts | 94° |
| 2026-05-04 20:55 | 52.28564 | 3.33472 | 15198 ft | 391 kts | 94° |
| 2026-05-04 20:55 | 52.28439 | 3.36401 | 14932 ft | 390 kts | 94° |
| 2026-05-04 20:55 | 52.28252 | 3.40806 | 14537 ft | 387 kts | 94° |
| 2026-05-04 20:56 | 52.28065 | 3.45161 | 14158 ft | 383 kts | 94° |
| 2026-05-04 20:56 | 52.27874 | 3.49488 | 13768 ft | 382 kts | 93° |
| 2026-05-04 20:56 | 52.27682 | 3.53803 | 13341 ft | 379 kts | 93° |
| 2026-05-04 20:56 | 52.27492 | 3.58063 | 12922 ft | 375 kts | 94° |
| 2026-05-04 20:57 | 52.27300 | 3.62309 | 12506 ft | 374 kts | 94° |
| 2026-05-04 20:57 | 52.27108 | 3.66527 | 12095 ft | 371 kts | 94° |
| 2026-05-04 20:57 | 52.26918 | 3.70700 | 11688 ft | 365 kts | 94° |
| 2026-05-04 20:57 | 52.26733 | 3.74812 | 11284 ft | 359 kts | 94° |
| 2026-05-04 20:58 | 52.26549 | 3.78845 | 10890 ft | 354 kts | 94° |
| 2026-05-04 20:58 | 52.26367 | 3.82817 | 10500 ft | 349 kts | 94° |
| 2026-05-04 20:58 | 52.26182 | 3.86743 | 10112 ft | 344 kts | 95° |
| 2026-05-04 20:58 | 52.25997 | 3.90614 | 9707 ft | 340 kts | 95° |
| 2026-05-04 20:59 | 52.25813 | 3.94429 | 9279 ft | 332 kts | 95° |
| 2026-05-04 20:59 | 52.25638 | 3.98063 | 8845 ft | 311 kts | 95° |
| 2026-05-04 20:59 | 52.25472 | 4.01479 | 8430 ft | 294 kts | 95° |
| 2026-05-04 20:59 | 52.25312 | 4.04799 | 8059 ft | 292 kts | 95° |
| 2026-05-04 21:00 | 52.25154 | 4.08092 | 7680 ft | 290 kts | 95° |
| 2026-05-04 21:00 | 52.24993 | 4.11361 | 7306 ft | 288 kts | 95° |
| 2026-05-04 21:00 | 52.24834 | 4.14620 | 6936 ft | 286 kts | 95° |
| 2026-05-04 21:00 | 52.24676 | 4.17847 | 6571 ft | 283 kts | 95° |
| 2026-05-04 21:01 | 52.24520 | 4.21033 | 6221 ft | 280 kts | 95° |
| 2026-05-04 21:01 | 52.24364 | 4.24137 | 5868 ft | 274 kts | 95° |
| 2026-05-04 21:01 | 52.24206 | 4.27205 | 5499 ft | 261 kts | 95° |
| 2026-05-04 21:01 | 52.24061 | 4.30040 | 5155 ft | 248 kts | 94° |
| 2026-05-04 21:02 | 52.23921 | 4.32802 | 4843 ft | 242 kts | 94° |
| 2026-05-04 21:02 | 52.23769 | 4.35518 | 4468 ft | 238 kts | 98° |
| 2026-05-04 21:02 | 52.23282 | 4.38082 | 4141 ft | 234 kts | 114° |
| 2026-05-04 21:02 | 52.22589 | 4.40447 | 3843 ft | 229 kts | 115° |
| 2026-05-04 21:03 | 52.21916 | 4.42768 | 3531 ft | 224 kts | 115° |
| 2026-05-04 21:03 | 52.21265 | 4.45039 | 3247 ft | 215 kts | 112° |
| 2026-05-04 21:03 | 52.20893 | 4.47365 | 2964 ft | 209 kts | 95° |
| 2026-05-04 21:03 | 52.20842 | 4.49701 | 2712 ft | 205 kts | 90° |
| 2026-05-04 21:04 | 52.20889 | 4.52003 | 2455 ft | 200 kts | 78° |
| 2026-05-04 21:04 | 52.21323 | 4.54054 | 2179 ft | 185 kts | 60° |
| 2026-05-04 21:04 | 52.21982 | 4.55779 | 2007 ft | 173 kts | 56° |
| 2026-05-04 21:04 | 52.22581 | 4.57327 | 1928 ft | 155 kts | 56° |
| 2026-05-04 21:05 | 52.23158 | 4.58817 | 1947 ft | 154 kts | 57° |
| 2026-05-04 21:05 | 52.23726 | 4.60285 | 1861 ft | 153 kts | 57° |
| 2026-05-04 21:05 | 52.24292 | 4.61748 | 1711 ft | 151 kts | 56° |
| 2026-05-04 21:05 | 52.24830 | 4.63143 | 1498 ft | 142 kts | 56° |
| 2026-05-04 21:06 | 52.25345 | 4.64474 | 1320 ft | 140 kts | 56° |
| 2026-05-04 21:06 | 52.25855 | 4.65796 | 1140 ft | 137 kts | 54° |
| 2026-05-04 21:06 | 52.26362 | 4.67108 | 949 ft | 135 kts | 54° |
| 2026-05-04 21:06 | 52.26861 | 4.68402 | 780 ft | 135 kts | 55° |
| 2026-05-04 21:07 | 52.27361 | 4.69698 | 617 ft | 135 kts | 53° |
| 2026-05-04 21:07 | 52.27862 | 4.70998 | 429 ft | 136 kts | 55° |
| 2026-05-04 21:07 | 52.28365 | 4.72314 | 245 ft | 136 kts | 54° |
| 2026-05-04 21:07 | 52.28868 | 4.73617 | 69 ft | 135 kts | 54° |
| 2026-05-04 21:08 | 52.29353 | 4.74876 | 2 ft | 122 kts | 54° |
| 2026-05-04 21:08 | 52.29729 | 4.75842 | -2 ft | 73 kts | 58° |
| 2026-05-04 21:08 | 52.29906 | 4.76316 | -4 ft | 24 kts | 58° |
| 2026-05-04 21:08 | 52.30000 | 4.76510 | -2 ft | 20 kts | 37° |
| 2026-05-04 21:09 | 52.30094 | 4.76596 | -1 ft | 12 kts | 28° |
| 2026-05-04 21:09 | 52.30161 | 4.76654 | -1 ft | 10 kts | 27° |
| 2026-05-04 21:09 | 52.30224 | 4.76707 | -1 ft | 10 kts | 27° |
| 2026-05-04 21:09 | 52.30291 | 4.76768 | -1 ft | 12 kts | 47° |
| 2026-05-04 21:10 | 52.30342 | 4.76901 | -1 ft | 15 kts | 58° |
| 2026-05-04 21:10 | 52.30403 | 4.77060 | -1 ft | 17 kts | 58° |
| 2026-05-04 21:10 | 52.30466 | 4.77223 | -1 ft | 17 kts | 58° |
| 2026-05-04 21:10 | 52.30529 | 4.77387 | -1 ft | 17 kts | 58° |
| 2026-05-04 21:11 | 52.30596 | 4.77546 | -1 ft | 17 kts | 44° |
| 2026-05-04 21:11 | 52.30707 | 4.77593 | -1 ft | 17 kts | 4° |
| 2026-05-04 21:11 | 52.30806 | 4.77592 | -1 ft | 12 kts | 341° |
| 2026-05-04 21:11 | 52.30834 | 4.77483 | -1 ft | 11 kts | 274° |
| 2026-05-04 21:12 | 52.30838 | 4.77368 | -1 ft | 10 kts | 273° |
| 2026-05-04 21:12 | 52.30842 | 4.77258 | -1 ft | 9 kts | 273° |
| 2026-05-04 21:12 | 52.30850 | 4.77191 | -1 ft | 4 kts | 309° |
| 2026-05-04 21:12 | 52.30878 | 4.77176 | -1 ft | 4 kts | 353° |
| 2026-05-04 21:13 | 52.30895 | 4.77176 | -1 ft | 2 kts | 360° |
| 2026-05-04 21:13 | 52.30897 | 4.77176 | -1 ft | 0 kts | 0° |